Time;durP1;ratioP1;P1;durP2;ratioP2;P2;SDS_P1;SDS_P2;PMS_P1;PMS_P2;Temp;Humidity;BMP_temperature;BMP_pressure;BME280_temperature;BME280_humidity;BME280_pressure;Samples;Min_cycle;Max_cycle;Signal;HPM_P1;HPM_P2
2021/03/07 00:00:53;;;;;;;1.83;1.08;;;17.70;54.70;;;;;;10495894;28;20111;-55
2021/03/07 00:05:54;;;;;;;1.15;0.90;;;17.70;54.60;;;;;;10466038;28;20385;-55
2021/03/07 00:10:54;;;;;;;1.58;0.95;;;17.70;54.40;;;;;;10476112;28;20040;-54
2021/03/07 00:15:55;;;;;;;1.85;0.95;;;17.70;54.40;;;;;;10467149;28;20158;-55
2021/03/07 00:20:56;;;;;;;2.33;1.10;;;17.70;54.40;;;;;;10455474;28;20025;-55
2021/03/07 00:25:57;;;;;;;2.42;1.23;;;17.70;54.30;;;;;;10484430;28;20071;-55
2021/03/07 00:30:58;;;;;;;1.80;1.15;;;17.70;54.40;;;;;;10475379;28;20624;-55
2021/03/07 00:35:59;;;;;;;2.58;1.30;;;17.70;54.30;;;;;;10464523;28;20120;-55
2021/03/07 00:41:00;;;;;;;1.58;0.90;;;17.70;54.40;;;;;;10465888;28;20052;-54
2021/03/07 00:46:00;;;;;;;1.58;0.93;;;17.70;54.30;;;;;;10466086;28;20162;-55
2021/03/07 00:51:01;;;;;;;2.17;1.08;;;17.70;54.20;;;;;;10499874;28;20468;-55
2021/03/07 00:56:02;;;;;;;2.45;1.10;;;17.70;54.20;;;;;;10482690;28;20562;-55
2021/03/07 01:01:02;;;;;;;1.95;0.93;;;17.70;54.20;;;;;;10461888;28;20481;-55
2021/03/07 01:06:03;;;;;;;2.40;1.20;;;17.70;54.20;;;;;;10480312;28;20449;-55
2021/03/07 01:11:04;;;;;;;0.98;0.80;;;17.70;54.10;;;;;;10500313;28;20052;-54
2021/03/07 01:16:05;;;;;;;1.98;1.10;;;17.70;54.00;;;;;;10499415;28;20032;-54
2021/03/07 01:21:06;;;;;;;1.80;0.80;;;17.70;54.00;;;;;;10469308;28;20039;-54
2021/03/07 01:26:08;;;;;;;1.10;0.70;;;17.70;53.90;;;;;;10462637;28;20037;-54
2021/03/07 01:31:09;;;;;;;1.17;0.85;;;17.70;54.00;;;;;;10461201;28;20551;-54
2021/03/07 01:36:09;;;;;;;2.08;1.23;;;17.70;53.90;;;;;;10462253;28;20123;-55
2021/03/07 01:41:10;;;;;;;1.48;1.10;;;17.70;53.90;;;;;;10461916;28;20086;-55
2021/03/07 01:46:11;;;;;;;1.35;0.90;;;17.70;53.90;;;;;;10496835;28;20106;-54
2021/03/07 01:51:13;;;;;;;1.75;1.23;;;17.70;53.80;;;;;;10476911;28;20029;-55
2021/03/07 01:56:16;;;;;;;1.67;1.00;;;17.70;53.80;;;;;;10484242;28;20087;-55
2021/03/07 02:01:16;;;;;;;1.80;0.85;;;17.70;53.80;;;;;;10464959;28;20035;-55
2021/03/07 02:06:18;;;;;;;1.75;1.02;;;17.70;53.80;;;;;;10492685;28;20063;-55
2021/03/07 02:11:19;;;;;;;2.08;1.08;;;17.70;53.80;;;;;;10499314;28;20124;-55
2021/03/07 02:16:23;;;;;;;1.25;0.80;;;17.70;53.70;;;;;;10468198;28;20499;-55
2021/03/07 02:21:49;;;;;;;1.88;1.15;;;17.70;53.70;;;;;;10491223;28;20043;-55
2021/03/07 02:26:51;;;;;;;1.58;0.93;;;17.70;53.70;;;;;;10457587;28;20025;-57
2021/03/07 02:31:59;;;;;;;1.85;0.85;;;17.70;53.70;;;;;;10483022;28;20098;-57
2021/03/07 02:37:06;;;;;;;1.48;0.88;;;17.70;53.70;;;;;;10462695;28;20028;-58
2021/03/07 02:42:15;;;;;;;1.38;0.90;;;17.70;53.60;;;;;;10484164;28;20028;-55
2021/03/07 02:47:16;;;;;;;1.67;1.20;;;17.70;53.60;;;;;;10476379;28;20469;-55
2021/03/07 02:52:18;;;;;;;1.30;0.70;;;17.70;53.60;;;;;;10487851;28;20059;-55
2021/03/07 02:57:23;;;;;;;1.77;0.90;;;17.70;53.50;;;;;;10456068;28;20025;-55
2021/03/07 03:02:30;;;;;;;1.48;0.80;;;17.70;53.60;;;;;;10457698;28;20036;-55
2021/03/07 03:07:34;;;;;;;1.10;0.80;;;17.70;53.50;;;;;;10492640;28;20113;-55
2021/03/07 03:12:37;;;;;;;1.40;0.80;;;17.70;53.40;;;;;;10487830;28;20044;-55
2021/03/07 03:17:40;;;;;;;1.67;0.88;;;17.70;53.40;;;;;;10460605;28;20350;-55
2021/03/07 03:22:43;;;;;;;1.77;1.23;;;17.70;53.40;;;;;;10469670;28;20033;-55
2021/03/07 03:27:43;;;;;;;1.45;0.93;;;17.70;53.40;;;;;;10496809;28;20448;-55
2021/03/07 03:32:44;;;;;;;1.83;1.00;;;17.70;53.40;;;;;;10482904;28;20037;-55
2021/03/07 03:37:48;;;;;;;1.88;0.93;;;17.70;53.30;;;;;;10477365;28;20096;-55
2021/03/07 03:42:58;;;;;;;1.80;1.00;;;17.70;53.90;;;;;;10474425;28;20417;-55
2021/03/07 03:48:03;;;;;;;1.77;0.88;;;17.70;53.30;;;;;;10480163;28;20436;-55
2021/03/07 03:53:06;;;;;;;1.48;0.80;;;17.70;53.30;;;;;;10483333;28;20041;-55
2021/03/07 03:58:07;;;;;;;1.50;0.80;;;17.70;53.20;;;;;;10494803;28;20493;-55
2021/03/07 04:03:13;;;;;;;2.08;0.85;;;17.70;53.30;;;;;;10491920;28;20317;-54
2021/03/07 04:08:19;;;;;;;1.60;1.02;;;17.70;53.30;;;;;;10474052;28;20103;-55
2021/03/07 04:13:25;;;;;;;1.60;0.80;;;17.70;53.20;;;;;;10455411;28;20041;-54
2021/03/07 04:18:27;;;;;;;1.25;0.75;;;17.70;53.10;;;;;;10488144;28;20033;-54
2021/03/07 04:23:28;;;;;;;1.38;0.82;;;17.70;53.00;;;;;;10454357;28;20039;-55
2021/03/07 04:28:29;;;;;;;1.10;0.75;;;17.70;53.00;;;;;;10463593;28;20500;-54
2021/03/07 04:33:30;;;;;;;1.00;0.63;;;17.70;53.00;;;;;;10484593;28;20070;-55
2021/03/07 04:38:33;;;;;;;2.25;0.82;;;17.70;53.00;;;;;;10484814;28;20121;-55
2021/03/07 04:43:58;;;;;;;1.13;0.80;;;17.70;52.90;;;;;;10481676;28;20060;-55
2021/03/07 04:48:59;;;;;;;0.88;0.70;;;17.70;52.90;;;;;;10479726;28;20028;-55
2021/03/07 04:53:59;;;;;;;1.30;0.75;;;17.70;52.90;;;;;;10486507;28;20038;-55
2021/03/07 04:59:00;;;;;;;1.48;0.95;;;17.70;53.30;;;;;;10470449;28;20089;-54
2021/03/07 05:04:04;;;;;;;1.98;1.02;;;17.70;52.90;;;;;;10470362;28;20465;-55
2021/03/07 05:09:07;;;;;;;1.20;0.90;;;17.70;52.80;;;;;;10461781;28;20039;-55
2021/03/07 05:14:08;;;;;;;2.28;0.80;;;17.70;52.80;;;;;;10460879;28;20446;-55
2021/03/07 05:19:09;;;;;;;0.82;0.63;;;17.70;52.80;;;;;;10474718;28;20033;-55
2021/03/07 05:24:10;;;;;;;0.98;0.70;;;17.70;52.70;;;;;;10463654;28;20114;-54
2021/03/07 05:29:11;;;;;;;0.93;0.70;;;17.70;52.70;;;;;;10515388;28;20497;-54
2021/03/07 05:34:11;;;;;;;1.52;1.00;;;17.70;52.70;;;;;;10463497;28;20072;-55
2021/03/07 05:39:12;;;;;;;1.08;0.70;;;17.70;52.70;;;;;;10483384;28;20040;-54
2021/03/07 05:44:13;;;;;;;1.27;0.77;;;17.70;52.70;;;;;;10490095;28;20063;-55
2021/03/07 05:49:13;;;;;;;0.90;0.52;;;17.70;52.70;;;;;;10477207;28;20385;-54
2021/03/07 05:54:16;;;;;;;1.67;1.02;;;17.70;52.70;;;;;;10499005;28;20346;-55
2021/03/07 05:59:17;;;;;;;4.78;1.05;;;17.70;52.60;;;;;;10495699;28;20021;-55
2021/03/07 06:04:18;;;;;;;6.85;0.80;;;17.70;53.20;;;;;;10477948;28;20040;-55
2021/03/07 06:09:27;;;;;;;6.55;1.05;;;17.70;54.40;;;;;;10475538;28;20032;-54
2021/03/07 06:14:33;;;;;;;3.57;0.80;;;17.70;54.70;;;;;;10496598;28;20045;-54
2021/03/07 06:19:54;;;;;;;2.67;0.80;;;17.70;55.40;;;;;;10488579;28;20182;-55
2021/03/07 06:24:56;;;;;;;6.03;1.13;;;17.70;55.40;;;;;;10474902;28;20118;-57
2021/03/07 06:30:17;;;;;;;5.22;1.08;;;17.70;54.90;;;;;;10475657;28;20095;-53
2021/03/07 06:35:33;;;;;;;5.18;1.42;;;17.60;54.40;;;;;;10475256;28;20032;-54
2021/03/07 06:40:40;;;;;;;9.20;1.33;;;17.60;54.60;;;;;;10484725;28;20032;-55
2021/03/07 06:45:43;;;;;;;9.10;2.35;;;17.70;54.60;;;;;;10483024;28;20036;-56
2021/03/07 06:50:55;;;;;;;7.43;1.40;;;17.70;54.70;;;;;;10481558;28;20438;-53
2021/03/07 06:55:56;;;;;;;9.18;1.83;;;17.60;54.70;;;;;;10469623;28;20077;-55
2021/03/07 07:00:57;;;;;;;9.50;1.88;;;17.60;55.10;;;;;;10459977;28;20044;-53
2021/03/07 07:05:58;;;;;;;12.73;2.08;;;17.60;55.10;;;;;;10477651;28;20029;-55
2021/03/07 07:11:03;;;;;;;12.98;1.88;;;17.70;55.40;;;;;;10495402;28;20400;-55
2021/03/07 07:16:07;;;;;;;7.13;2.15;;;17.60;55.70;;;;;;10469041;28;20096;-55
2021/03/07 07:21:11;;;;;;;11.77;3.05;;;17.60;55.50;;;;;;10488856;28;20477;-55
2021/03/07 07:26:12;;;;;;;11.68;1.60;;;17.60;55.10;;;;;;10492877;28;20037;-55
2021/03/07 07:31:59;;;;;;;12.52;1.80;;;17.60;55.10;;;;;;10467336;28;20044;-54
2021/03/07 07:37:02;;;;;;;7.55;1.63;;;17.60;55.00;;;;;;10460205;28;20063;-53
2021/03/07 07:42:31;;;;;;;4.72;1.10;;;17.60;55.10;;;;;;10478179;28;20039;-54
2021/03/07 07:47:51;;;;;;;10.80;1.50;;;17.50;54.80;;;;;;10470607;28;20116;-55
2021/03/07 07:52:51;;;;;;;10.60;1.83;;;17.50;54.50;;;;;;10482685;28;20090;-54
2021/03/07 07:57:52;;;;;;;16.20;1.73;;;17.50;54.50;;;;;;10461187;28;20056;-56
2021/03/07 08:02:57;;;;;;;5.13;1.42;;;17.50;54.60;;;;;;10461357;28;20377;-56
2021/03/07 08:08:07;;;;;;;7.80;1.65;;;17.60;54.60;;;;;;10484260;28;20036;-56
2021/03/07 08:13:27;;;;;;;3.67;1.15;;;17.50;54.40;;;;;;10476462;28;20098;-55
2021/03/07 08:18:54;;;;;;;4.68;0.90;;;17.50;54.40;;;;;;10479298;28;20037;-54
2021/03/07 08:24:06;;;;;;;4.38;2.33;;;17.50;54.60;;;;;;10471567;28;20025;-52
2021/03/07 08:29:40;;;;;;;5.18;1.30;;;17.50;54.60;;;;;;10471928;28;20538;-54
2021/03/07 08:34:44;;;;;;;4.05;1.52;;;17.50;54.60;;;;;;10477873;28;20484;-55
2021/03/07 08:39:45;;;;;;;7.15;2.10;;;17.60;54.80;;;;;;10474516;28;20022;-55
2021/03/07 08:45:21;;;;;;;4.90;1.60;;;17.50;54.60;;;;;;10479323;28;20127;-56
2021/03/07 08:50:24;;;;;;;7.88;2.17;;;17.50;54.80;;;;;;10483167;28;20060;-56
2021/03/07 08:55:24;;;;;;;4.78;1.50;;;17.50;54.80;;;;;;10475915;28;20079;-56
2021/03/07 09:00:26;;;;;;;7.95;1.65;;;17.50;55.20;;;;;;10461046;28;20079;-56
2021/03/07 09:05:30;;;;;;;14.20;2.40;;;17.50;55.10;;;;;;10471950;28;20354;-55
2021/03/07 09:10:41;;;;;;;10.07;1.60;;;17.40;54.60;;;;;;10475468;28;20068;-57
2021/03/07 09:16:02;;;;;;;19.45;2.78;;;17.50;54.60;;;;;;10466159;28;20025;-55
2021/03/07 09:21:11;;;;;;;12.45;2.67;;;17.40;55.30;;;;;;10476552;28;20033;-55
2021/03/07 09:26:20;;;;;;;14.13;2.35;;;17.40;55.50;;;;;;10434080;28;20032;-53
2021/03/07 09:31:31;;;;;;;10.10;2.15;;;17.40;55.60;;;;;;10461984;28;20060;-55
2021/03/07 09:36:38;;;;;;;15.43;2.67;;;17.40;55.70;;;;;;10463252;28;20120;-55
2021/03/07 09:41:43;;;;;;;12.30;2.20;;;17.40;55.80;;;;;;10481237;28;20043;-55
2021/03/07 09:46:51;;;;;;;19.63;2.80;;;17.40;55.90;;;;;;10468500;28;20033;-56
2021/03/07 09:51:53;;;;;;;12.50;3.15;;;17.30;57.70;;;;;;10471930;28;20032;-54
2021/03/07 09:56:55;;;;;;;12.30;1.95;;;17.30;56.60;;;;;;10493503;28;20032;-55
2021/03/07 10:02:05;;;;;;;8.23;1.90;;;17.30;57.00;;;;;;10489530;28;20046;-56
2021/03/07 10:07:17;;;;;;;10.98;2.38;;;17.30;57.40;;;;;;10483884;28;20566;-55
2021/03/07 10:12:18;;;;;;;15.95;2.63;;;17.30;58.00;;;;;;10479193;28;20059;-55
2021/03/07 10:17:19;;;;;;;20.25;2.97;;;17.30;59.00;;;;;;10480966;28;20041;-55
2021/03/07 10:22:19;;;;;;;11.18;2.90;;;17.30;58.80;;;;;;10479462;28;20037;-57
2021/03/07 10:27:31;;;;;;;20.02;2.65;;;17.30;59.50;;;;;;10478041;28;20115;-57
2021/03/07 10:32:32;;;;;;;19.50;2.50;;;17.20;58.70;;;;;;10457008;28;20464;-56
2021/03/07 10:37:40;;;;;;;17.90;3.05;;;17.20;58.80;;;;;;10464975;28;20103;-57
2021/03/07 10:42:45;;;;;;;9.68;2.08;;;17.10;58.90;;;;;;10474707;28;20040;-56
2021/03/07 10:48:13;;;;;;;17.90;3.53;;;17.10;58.50;;;;;;10462429;28;20052;-55
2021/03/07 10:53:17;;;;;;;16.10;3.03;;;17.10;59.00;;;;;;10449511;28;20040;-55
2021/03/07 10:58:20;;;;;;;15.93;2.50;;;17.10;59.00;;;;;;10479267;28;20032;-55
2021/03/07 11:03:20;;;;;;;9.73;1.80;;;17.00;58.20;;;;;;10494231;28;20056;-56
2021/03/07 11:08:21;;;;;;;9.77;2.08;;;17.00;57.20;;;;;;10474620;28;20064;-56
2021/03/07 11:13:22;;;;;;;11.77;2.20;;;17.00;57.90;;;;;;10458768;28;20052;-56
2021/03/07 11:18:23;;;;;;;8.93;1.92;;;16.90;57.30;;;;;;10472849;28;20048;-56
2021/03/07 11:23:23;;;;;;;6.28;2.17;;;16.90;57.20;;;;;;10455585;28;20033;-57
2021/03/07 11:28:24;;;;;;;7.32;2.15;;;16.90;56.70;;;;;;10454326;28;20533;-56
2021/03/07 11:33:26;;;;;;;5.65;1.73;;;16.90;56.70;;;;;;10449182;28;20163;-56
2021/03/07 11:38:26;;;;;;;11.68;2.17;;;16.90;57.00;;;;;;10456315;28;20036;-57
2021/03/07 11:43:27;;;;;;;7.25;1.90;;;17.00;57.00;;;;;;10456315;28;20040;-56
2021/03/07 11:48:28;;;;;;;5.07;1.65;;;17.10;58.30;;;;;;10488063;28;20075;-54
2021/03/07 11:53:29;;;;;;;8.05;2.15;;;17.10;58.70;;;;;;10453351;28;20045;-54
2021/03/07 11:58:29;;;;;;;6.70;1.80;;;17.20;58.20;;;;;;10486916;28;20086;-55
2021/03/07 12:03:30;;;;;;;7.40;2.00;;;17.20;59.00;;;;;;10492056;28;20035;-54
2021/03/07 12:08:31;;;;;;;14.27;2.00;;;17.20;59.40;;;;;;10475638;28;20499;-53
2021/03/07 12:13:32;;;;;;;7.78;1.70;;;17.20;59.60;;;;;;10482130;28;20131;-55
2021/03/07 12:18:35;;;;;;;9.65;2.15;;;17.20;59.40;;;;;;10474082;28;20105;-55
2021/03/07 12:23:36;;;;;;;7.97;1.52;;;17.20;59.20;;;;;;10475454;28;20115;-54
2021/03/07 12:28:37;;;;;;;12.70;2.08;;;17.10;59.50;;;;;;10477003;28;20115;-54
2021/03/07 12:33:37;;;;;;;14.95;3.00;;;17.10;59.40;;;;;;10491415;28;20485;-54
2021/03/07 12:38:38;;;;;;;11.68;2.17;;;17.10;58.90;;;;;;10482139;28;20025;-55
2021/03/07 12:43:39;;;;;;;9.38;2.38;;;17.10;59.20;;;;;;10476179;28;20112;-55
2021/03/07 12:48:40;;;;;;;12.82;1.95;;;17.00;58.80;;;;;;10464884;28;20036;-55
2021/03/07 12:53:40;;;;;;;11.35;2.72;;;17.00;58.80;;;;;;10477941;28;20481;-56
2021/03/07 12:58:41;;;;;;;7.32;1.98;;;17.10;58.50;;;;;;10471363;28;20453;-55
2021/03/07 13:03:42;;;;;;;13.77;2.70;;;17.10;58.40;;;;;;10460733;28;20036;-55
2021/03/07 13:08:43;;;;;;;13.82;2.05;;;17.10;57.20;;;;;;10466564;28;20400;-54
2021/03/07 13:13:43;;;;;;;6.72;1.80;;;17.10;57.30;;;;;;10446402;28;20060;-55
2021/03/07 13:18:44;;;;;;;14.55;2.08;;;17.20;57.20;;;;;;10468652;28;20024;-55
2021/03/07 13:23:45;;;;;;;5.97;2.72;;;17.20;57.00;;;;;;10487197;28;20032;-55
2021/03/07 13:28:46;;;;;;;6.55;1.40;;;17.20;56.90;;;;;;10455353;28;20115;-54
2021/03/07 13:33:47;;;;;;;7.65;1.65;;;17.30;56.90;;;;;;10479918;28;20115;-54
2021/03/07 13:38:48;;;;;;;7.45;1.98;;;17.30;56.80;;;;;;10465341;28;20544;-54
2021/03/07 13:43:48;;;;;;;5.93;1.55;;;17.30;56.60;;;;;;10443499;28;20086;-55
2021/03/07 13:48:49;;;;;;;5.88;2.13;;;17.30;56.30;;;;;;10452751;28;20043;-54
2021/03/07 13:53:50;;;;;;;15.73;1.92;;;17.30;56.30;;;;;;10466559;28;20389;-54
2021/03/07 13:58:51;;;;;;;4.85;1.20;;;17.40;56.10;;;;;;10467583;28;20032;-53
2021/03/07 14:03:51;;;;;;;6.30;1.10;;;17.40;55.60;;;;;;10473259;28;20033;-56
2021/03/07 14:08:53;;;;;;;6.60;2.05;;;17.30;54.70;;;;;;10474005;28;20064;-55
2021/03/07 14:13:53;;;;;;;10.98;2.05;;;17.30;54.40;;;;;;10462916;28;20675;-55
2021/03/07 14:18:54;;;;;;;8.70;1.13;;;17.40;54.80;;;;;;10463137;28;20038;-55
2021/03/07 14:23:55;;;;;;;9.88;1.60;;;17.40;54.90;;;;;;10466956;28;20038;-55
2021/03/07 14:28:56;;;;;;;11.70;2.10;;;17.40;55.20;;;;;;10466034;28;20448;-54
2021/03/07 14:33:57;;;;;;;8.38;1.50;;;17.40;55.60;;;;;;10467196;28;20116;-55
2021/03/07 14:38:57;;;;;;;14.57;3.17;;;17.30;56.10;;;;;;10449586;28;20155;-55
2021/03/07 14:43:59;;;;;;;10.35;1.80;;;17.40;56.40;;;;;;10464560;28;20107;-56
2021/03/07 14:48:59;;;;;;;14.40;2.10;;;17.30;56.50;;;;;;10456795;28;20064;-56
2021/03/07 14:54:00;;;;;;;14.18;2.40;;;17.30;57.20;;;;;;10457324;28;20355;-56
2021/03/07 14:59:01;;;;;;;21.38;3.95;;;17.30;57.60;;;;;;10465556;28;20033;-56
2021/03/07 15:04:02;;;;;;;16.08;2.95;;;17.20;57.80;;;;;;10465916;28;20041;-56
2021/03/07 15:09:05;;;;;;;11.48;2.42;;;17.20;58.40;;;;;;10476421;28;20033;-56
2021/03/07 15:14:06;;;;;;;13.88;2.55;;;17.20;58.70;;;;;;10476510;28;20039;-56
2021/03/07 15:19:08;;;;;;;9.88;2.50;;;17.20;58.60;;;;;;10477508;28;20033;-56
2021/03/07 15:24:09;;;;;;;15.32;2.13;;;17.20;59.10;;;;;;10474637;28;20033;-55
2021/03/07 15:29:10;;;;;;;11.60;2.33;;;17.20;58.80;;;;;;10455640;28;20393;-56
2021/03/07 15:34:10;;;;;;;15.48;2.28;;;17.20;59.30;;;;;;10455855;28;20029;-59
2021/03/07 15:39:11;;;;;;;12.57;2.58;;;17.20;59.40;;;;;;10455721;28;20028;-55
2021/03/07 15:44:12;;;;;;;12.38;2.88;;;17.20;59.50;;;;;;10455590;28;20057;-55
2021/03/07 15:49:12;;;;;;;19.05;2.55;;;17.20;59.40;;;;;;10467550;28;20060;-57
2021/03/07 15:54:13;;;;;;;8.73;3.03;;;17.20;60.30;;;;;;10450372;28;20099;-59
2021/03/07 15:59:14;;;;;;;10.70;3.30;;;17.20;63.30;;;;;;10442955;28;20033;-57
2021/03/07 16:04:15;;;;;;;13.43;3.22;;;17.20;63.80;;;;;;10453584;28;20071;-57
2021/03/07 16:09:15;;;;;;;10.60;3.15;;;17.30;64.40;;;;;;10454098;28;20107;-55
2021/03/07 16:14:17;;;;;;;10.65;3.22;;;17.40;65.10;;;;;;10454417;28;20060;-56
2021/03/07 16:19:17;;;;;;;8.88;3.25;;;17.40;64.20;;;;;;10458143;28;20025;-56
2021/03/07 16:24:18;;;;;;;9.73;3.17;;;17.40;63.00;;;;;;10456784;28;20452;-56
2021/03/07 16:29:19;;;;;;;8.60;2.63;;;17.40;62.20;;;;;;10454155;28;20028;-56
2021/03/07 16:34:19;;;;;;;5.75;2.15;;;17.30;62.10;;;;;;10450637;28;20401;-57
2021/03/07 16:39:20;;;;;;;10.95;3.05;;;17.30;61.10;;;;;;10450668;28;20039;-55
2021/03/07 16:44:21;;;;;;;13.35;3.53;;;17.30;61.30;;;;;;10453960;28;20037;-55
2021/03/07 16:49:21;;;;;;;14.18;3.22;;;17.30;59.80;;;;;;10453922;28;20060;-57
2021/03/07 16:54:22;;;;;;;12.50;3.67;;;17.40;58.30;;;;;;10453785;28;20033;-55
2021/03/07 16:59:23;;;;;;;15.85;4.30;;;17.50;57.00;;;;;;10452599;28;20425;-57
2021/03/07 17:04:24;;;;;;;13.95;4.20;;;17.50;56.60;;;;;;10453376;28;20060;-56
2021/03/07 17:09:25;;;;;;;16.33;4.72;;;17.60;55.80;;;;;;10459416;28;20445;-56
2021/03/07 17:14:26;;;;;;;15.50;4.20;;;17.50;55.70;;;;;;10451748;28;20055;-57
2021/03/07 17:19:27;;;;;;;14.32;4.82;;;17.60;55.50;;;;;;10461333;28;20079;-59
2021/03/07 17:24:27;;;;;;;12.82;3.70;;;17.60;55.20;;;;;;10458938;28;20053;-57
2021/03/07 17:29:32;;;;;;;11.85;3.90;;;17.80;53.90;;;;;;10462494;28;20025;-56
2021/03/07 17:34:33;;;;;;;11.18;3.45;;;17.90;56.40;;;;;;10459323;28;20040;-57
2021/03/07 17:39:34;;;;;;;8.77;3.50;;;18.00;58.20;;;;;;10460288;28;20533;-57
2021/03/07 17:44:34;;;;;;;11.50;3.42;;;17.90;57.60;;;;;;10452185;28;20091;-57
2021/03/07 17:49:35;;;;;;;7.10;2.70;;;17.90;57.20;;;;;;10459598;28;20484;-57
2021/03/07 17:54:36;;;;;;;6.20;2.72;;;17.90;56.30;;;;;;10455233;28;20488;-58
2021/03/07 17:59:37;;;;;;;5.72;2.90;;;17.80;55.80;;;;;;10453818;28;20033;-57
2021/03/07 18:04:38;;;;;;;7.32;2.42;;;17.80;55.80;;;;;;10458074;28;20033;-57
2021/03/07 18:09:41;;;;;;;12.15;2.40;;;17.70;55.80;;;;;;10445996;28;20041;-57
2021/03/07 18:14:41;;;;;;;8.25;2.55;;;17.60;56.10;;;;;;10466770;28;20044;-57
2021/03/07 18:19:44;;;;;;;7.25;3.55;;;17.60;56.20;;;;;;10470384;28;20108;-58
2021/03/07 18:24:44;;;;;;;4.57;2.20;;;17.60;56.10;;;;;;10459140;28;20037;-56
2021/03/07 18:29:45;;;;;;;7.22;2.55;;;17.60;56.30;;;;;;10459335;28;20680;-55
2021/03/07 18:34:46;;;;;;;3.90;1.98;;;17.60;56.50;;;;;;10466500;28;20503;-59
2021/03/07 18:39:47;;;;;;;5.32;1.80;;;17.60;56.50;;;;;;10473040;28;20052;-57
2021/03/07 18:44:48;;;;;;;5.13;2.63;;;17.60;56.70;;;;;;10451859;28;20171;-57
2021/03/07 18:49:48;;;;;;;5.68;2.72;;;17.60;56.70;;;;;;10447841;28;20029;-58
2021/03/07 18:54:49;;;;;;;4.57;1.95;;;17.60;56.70;;;;;;10449266;28;20025;-56
2021/03/07 18:59:51;;;;;;;7.60;2.33;;;17.60;57.20;;;;;;10457248;28;20081;-55
2021/03/07 19:04:52;;;;;;;4.43;2.53;;;17.60;57.40;;;;;;10450908;28;20071;-56
2021/03/07 19:09:53;;;;;;;4.97;2.20;;;17.60;57.20;;;;;;10465579;28;20090;-56
2021/03/07 19:14:53;;;;;;;8.82;2.70;;;17.60;58.00;;;;;;10445155;28;20033;-55
2021/03/07 19:19:54;;;;;;;5.72;2.45;;;17.60;58.00;;;;;;10454066;28;20100;-55
2021/03/07 19:24:55;;;;;;;6.00;2.45;;;17.60;58.00;;;;;;10456987;28;20129;-55
2021/03/07 19:29:56;;;;;;;9.02;2.72;;;17.60;59.00;;;;;;10472113;28;20422;-56
2021/03/07 19:34:57;;;;;;;5.50;2.83;;;17.60;58.60;;;;;;10474626;28;20063;-55
2021/03/07 19:39:57;;;;;;;5.63;2.60;;;17.60;58.60;;;;;;10460770;28;20038;-55
2021/03/07 19:44:58;;;;;;;4.57;2.50;;;17.60;58.60;;;;;;10470034;28;20116;-55
2021/03/07 19:49:59;;;;;;;7.93;3.00;;;17.60;58.70;;;;;;10473694;28;20016;-55
2021/03/07 19:54:59;;;;;;;3.90;2.38;;;17.60;58.70;;;;;;10457659;28;20029;-55
2021/03/07 20:00:00;;;;;;;7.75;2.67;;;17.60;58.80;;;;;;10461235;28;20056;-56
2021/03/07 20:05:05;;;;;;;4.28;2.20;;;17.60;58.60;;;;;;10454641;28;20017;-55
2021/03/07 20:10:07;;;;;;;3.42;2.10;;;17.60;58.80;;;;;;10453209;28;20037;-55
2021/03/07 20:15:08;;;;;;;4.13;2.45;;;17.60;58.90;;;;;;10471013;28;20161;-55
2021/03/07 20:20:10;;;;;;;3.30;2.45;;;17.60;58.70;;;;;;10473702;28;20058;-54
2021/03/07 20:25:11;;;;;;;3.08;2.10;;;17.60;58.80;;;;;;10436631;28;20382;-55
2021/03/07 20:30:12;;;;;;;4.00;2.42;;;17.60;58.50;;;;;;10450444;28;20033;-54
2021/03/07 20:35:13;;;;;;;5.72;2.20;;;17.60;58.20;;;;;;10452490;28;20098;-55
2021/03/07 20:40:16;;;;;;;5.18;2.95;;;17.50;58.10;;;;;;10473348;28;20389;-54
2021/03/07 20:45:20;;;;;;;4.75;2.13;;;17.50;58.00;;;;;;10454386;28;20094;-57
2021/03/07 20:50:21;;;;;;;4.50;2.47;;;17.50;57.90;;;;;;10459904;28;20103;-55
2021/03/07 20:55:22;;;;;;;4.78;2.20;;;17.50;57.80;;;;;;10462124;28;20039;-56
2021/03/07 21:00:24;;;;;;;2.80;2.13;;;17.50;57.70;;;;;;10461783;28;20033;-56
2021/03/07 21:05:24;;;;;;;3.67;1.98;;;17.50;57.60;;;;;;10461648;28;20075;-55
2021/03/07 21:10:25;;;;;;;3.90;2.33;;;17.50;57.70;;;;;;10459891;28;20041;-55
2021/03/07 21:15:26;;;;;;;4.40;2.15;;;17.50;57.60;;;;;;10461338;28;20033;-55
2021/03/07 21:20:27;;;;;;;3.60;2.22;;;17.50;57.50;;;;;;10465469;28;20083;-55
2021/03/07 21:25:28;;;;;;;2.95;2.20;;;17.50;57.50;;;;;;10459782;28;20029;-55
2021/03/07 21:30:29;;;;;;;4.38;1.80;;;17.50;57.40;;;;;;10460727;28;20029;-55
2021/03/07 21:35:29;;;;;;;4.40;1.92;;;17.50;57.30;;;;;;10460539;28;20487;-56
2021/03/07 21:40:30;;;;;;;4.05;2.05;;;17.50;57.30;;;;;;10458776;28;20028;-55
2021/03/07 21:45:32;;;;;;;5.78;2.25;;;17.50;57.20;;;;;;10461155;28;20150;-55
2021/03/07 21:50:32;;;;;;;3.28;2.10;;;17.50;57.20;;;;;;10460198;28;20029;-53
2021/03/07 21:55:33;;;;;;;5.18;2.40;;;17.40;57.10;;;;;;10459560;28;20051;-55
2021/03/07 22:00:34;;;;;;;3.55;1.90;;;17.50;57.10;;;;;;10459452;28;20064;-55
2021/03/07 22:05:34;;;;;;;4.65;2.05;;;17.50;57.00;;;;;;10458759;28;20040;-54
2021/03/07 22:10:35;;;;;;;2.60;2.10;;;17.50;56.90;;;;;;10459111;28;20486;-55
2021/03/07 22:15:36;;;;;;;3.05;1.98;;;17.50;56.80;;;;;;10459354;28;20112;-55
2021/03/07 22:20:36;;;;;;;4.20;2.10;;;17.50;56.80;;;;;;10463074;28;20051;-55
2021/03/07 22:25:37;;;;;;;3.28;1.90;;;17.50;56.70;;;;;;10458716;28;20037;-56
2021/03/07 22:30:38;;;;;;;4.55;2.33;;;17.50;56.60;;;;;;10458605;28;20033;-56
2021/03/07 22:35:39;;;;;;;3.42;1.88;;;17.50;56.50;;;;;;10458160;28;20445;-56
2021/03/07 22:40:40;;;;;;;2.47;1.75;;;17.50;56.50;;;;;;10458543;28;20651;-56
2021/03/07 22:45:40;;;;;;;3.60;2.33;;;17.50;56.50;;;;;;10457907;28;20183;-55
2021/03/07 22:50:44;;;;;;;3.47;1.77;;;17.50;56.50;;;;;;10457531;28;20075;-56
2021/03/07 22:55:45;;;;;;;3.58;2.05;;;17.50;56.40;;;;;;10454298;28;20025;-55
2021/03/07 23:00:47;;;;;;;2.38;1.73;;;17.50;56.20;;;;;;10457339;28;20035;-54
2021/03/07 23:05:47;;;;;;;2.47;1.90;;;17.50;56.30;;;;;;10457501;28;20125;-55
2021/03/07 23:10:49;;;;;;;3.03;2.00;;;17.60;56.20;;;;;;10455351;28;20055;-55
2021/03/07 23:15:50;;;;;;;4.38;2.25;;;17.60;56.20;;;;;;10456556;28;20052;-55
2021/03/07 23:20:51;;;;;;;3.03;2.00;;;17.60;56.10;;;;;;10458212;28;20029;-55
2021/03/07 23:25:52;;;;;;;3.50;2.15;;;17.60;56.00;;;;;;10453826;28;20420;-56
2021/03/07 23:30:52;;;;;;;3.42;2.33;;;17.60;55.80;;;;;;10454812;28;20116;-56
2021/03/07 23:35:53;;;;;;;2.53;1.88;;;17.60;56.50;;;;;;10455629;28;20053;-56
2021/03/07 23:40:54;;;;;;;4.00;2.28;;;17.60;55.90;;;;;;10456104;28;20029;-56
2021/03/07 23:45:55;;;;;;;3.67;1.90;;;17.60;55.80;;;;;;10455679;28;20461;-56
2021/03/07 23:50:56;;;;;;;3.30;2.22;;;17.60;55.80;;;;;;10455006;28;20044;-56
2021/03/07 23:55:56;;;;;;;2.95;1.98;;;17.60;55.70;;;;;;10454905;28;20513;-55
